createdAt,value
2017-10-14T00:00:24.657Z,2.30
2017-10-14T00:02:51.293Z,2.90
2017-10-14T00:05:17.949Z,3.10
2017-10-14T00:07:44.590Z,2.30
2017-10-14T00:10:11.229Z,2.80
2017-10-14T00:12:37.875Z,2.43
2017-10-14T00:15:04.509Z,2.70
2017-10-14T00:17:31.256Z,2.50
2017-10-14T00:19:57.889Z,2.13
2017-10-14T00:22:24.544Z,2.50
2017-10-14T00:24:51.182Z,2.70
2017-10-14T00:27:17.860Z,2.47
2017-10-14T00:29:44.613Z,2.43
2017-10-14T00:32:11.240Z,2.30
2017-10-14T00:34:37.884Z,2.30
2017-10-14T00:37:04.517Z,2.37
2017-10-14T00:39:31.168Z,2.20
2017-10-14T00:41:57.868Z,2.53
2017-10-14T00:44:24.520Z,2.50
2017-10-14T00:46:51.153Z,2.40
2017-10-14T00:49:17.785Z,2.23
2017-10-14T00:51:44.437Z,2.33
2017-10-14T00:54:11.069Z,2.70
2017-10-14T00:56:37.779Z,2.57
2017-10-14T00:59:04.412Z,2.10
2017-10-14T01:01:31.069Z,2.03
2017-10-14T01:03:57.721Z,2.60
2017-10-14T01:06:24.352Z,2.60
2017-10-14T01:08:51.030Z,2.40
2017-10-14T01:11:17.664Z,2.60
2017-10-14T01:13:44.312Z,2.30
2017-10-14T01:16:10.945Z,2.80
2017-10-14T01:18:37.621Z,2.30
2017-10-14T01:21:04.253Z,1.90
2017-10-14T01:23:30.885Z,2.43
2017-10-14T01:25:57.537Z,2.57
2017-10-14T01:28:24.229Z,2.57
2017-10-14T01:30:50.881Z,2.10
2017-10-14T01:33:17.516Z,2.37
2017-10-14T01:35:44.171Z,2.33
2017-10-14T01:38:10.800Z,2.10
2017-10-14T01:40:37.447Z,2.60
2017-10-14T01:43:04.077Z,2.50
2017-10-14T01:45:30.733Z,2.30
2017-10-14T01:47:57.429Z,2.53
2017-10-14T01:50:24.097Z,2.33
2017-10-14T01:52:50.733Z,2.37
2017-10-14T01:55:17.368Z,2.73
2017-10-14T01:57:44.020Z,2.50
2017-10-14T02:00:10.686Z,2.37
2017-10-14T02:02:37.339Z,2.40
2017-10-14T02:05:03.970Z,2.40
2017-10-14T02:07:30.632Z,2.57
2017-10-14T02:09:57.268Z,2.20
2017-10-14T02:12:23.916Z,2.10
2017-10-14T02:14:50.546Z,2.30
2017-10-14T02:17:17.185Z,2.00
2017-10-14T02:19:43.846Z,2.60
2017-10-14T02:22:10.545Z,2.23
2017-10-14T02:24:37.199Z,2.40
2017-10-14T02:27:03.837Z,2.00
2017-10-14T02:29:30.594Z,2.07
2017-10-14T02:31:57.231Z,2.13
2017-10-14T02:34:23.885Z,2.23
2017-10-14T02:36:50.517Z,2.53
2017-10-14T02:39:17.196Z,2.33
2017-10-14T02:41:43.954Z,2.20
2017-10-14T02:44:10.584Z,2.30
2017-10-14T02:46:37.228Z,2.23
2017-10-14T02:49:03.861Z,2.13
2017-10-14T02:51:30.562Z,2.30
2017-10-14T02:53:57.210Z,1.90
2017-10-14T02:56:23.957Z,1.90
2017-10-14T02:58:50.592Z,2.20
2017-10-14T03:01:17.258Z,2.30
2017-10-14T03:03:43.894Z,2.10
2017-10-14T03:06:10.524Z,2.40
2017-10-14T03:08:37.182Z,2.30
2017-10-14T03:11:03.854Z,2.37
2017-10-14T03:13:30.500Z,2.00
2017-10-14T03:15:57.157Z,2.33
2017-10-14T03:18:23.805Z,2.53
2017-10-14T03:20:50.447Z,2.40
2017-10-14T03:23:17.221Z,2.37
2017-10-14T03:25:43.852Z,2.50
2017-10-14T03:28:10.526Z,1.80
2017-10-14T03:30:37.179Z,2.10
2017-10-14T03:33:03.917Z,2.17
2017-10-14T03:35:30.576Z,2.70
2017-10-14T03:37:57.225Z,2.00
2017-10-14T03:40:23.884Z,2.47
2017-10-14T03:42:50.513Z,1.80
2017-10-14T03:45:17.169Z,2.23
2017-10-14T03:47:43.801Z,2.33
2017-10-14T03:50:10.477Z,1.87
2017-10-14T03:52:37.125Z,2.50
2017-10-14T03:55:03.753Z,2.00
2017-10-14T03:57:30.428Z,2.40
2017-10-14T03:59:57.060Z,2.27
2017-10-14T04:02:23.711Z,2.10
2017-10-14T04:04:50.336Z,2.17
2017-10-14T04:07:17.000Z,1.97
2017-10-14T04:09:43.651Z,2.23
2017-10-14T04:12:10.285Z,2.23
2017-10-14T04:14:36.931Z,2.20
2017-10-14T04:17:03.633Z,2.10
2017-10-14T04:19:30.279Z,2.00
2017-10-14T04:21:56.909Z,1.97
2017-10-14T04:24:23.576Z,2.20
2017-10-14T04:26:50.213Z,2.20
2017-10-14T04:29:16.884Z,1.50
2017-10-14T04:31:43.533Z,2.10
2017-10-14T04:34:10.184Z,2.20
2017-10-14T04:36:36.842Z,2.33
2017-10-14T04:39:03.486Z,2.03
2017-10-14T04:41:30.131Z,2.20
2017-10-14T04:43:56.793Z,2.07
2017-10-14T04:46:23.454Z,2.47
2017-10-14T04:48:50.091Z,1.97
2017-10-14T04:51:16.727Z,2.13
2017-10-14T04:53:43.393Z,2.10
2017-10-14T04:56:10.034Z,2.33
2017-10-14T04:58:36.689Z,2.50
2017-10-14T05:01:03.320Z,2.13
2017-10-14T05:03:29.974Z,1.80
2017-10-14T05:05:56.608Z,2.27
2017-10-14T05:08:23.269Z,2.37
2017-10-14T05:10:49.904Z,2.40
2017-10-14T05:13:16.597Z,2.00
2017-10-14T05:15:43.248Z,2.37
2017-10-14T05:18:09.909Z,2.10
2017-10-14T05:20:36.652Z,2.10
2017-10-14T05:23:03.289Z,2.00
2017-10-14T05:25:29.949Z,1.87
2017-10-14T05:27:56.601Z,2.13
2017-10-14T05:30:23.261Z,2.07
2017-10-14T05:32:49.900Z,2.10
2017-10-14T05:35:16.537Z,2.30
2017-10-14T05:37:43.193Z,1.77
2017-10-14T05:40:09.824Z,2.00
2017-10-14T05:42:36.472Z,2.03
2017-10-14T05:45:03.108Z,2.17
2017-10-14T05:47:29.808Z,2.00
2017-10-14T05:49:56.435Z,2.37
2017-10-14T05:52:23.099Z,1.70
2017-10-14T05:54:49.761Z,2.17
2017-10-14T05:57:16.393Z,2.17
2017-10-14T05:59:43.044Z,2.30
2017-10-14T06:02:09.678Z,2.10
2017-10-14T06:04:36.364Z,1.93
2017-10-14T06:07:03.012Z,2.10
2017-10-14T06:09:29.666Z,2.20
2017-10-14T06:11:56.306Z,2.10
2017-10-14T06:14:22.965Z,1.90
2017-10-14T06:16:49.609Z,1.77
2017-10-14T06:19:16.265Z,2.27
2017-10-14T06:21:42.917Z,2.13
2017-10-14T06:24:09.546Z,2.30
2017-10-14T06:26:36.195Z,2.27
2017-10-14T06:29:02.832Z,1.83
2017-10-14T06:31:29.517Z,1.80
2017-10-14T06:33:56.168Z,1.77
2017-10-14T06:36:22.816Z,2.07
2017-10-14T06:38:49.444Z,2.03
2017-10-14T06:41:16.527Z,1.97
2017-10-14T06:43:43.160Z,1.90
2017-10-14T06:46:09.793Z,2.10
2017-10-14T06:48:36.505Z,2.17
2017-10-14T06:51:03.141Z,2.00
2017-10-14T06:53:29.789Z,1.80
2017-10-14T06:55:56.426Z,1.77
2017-10-14T06:58:23.072Z,1.97
2017-10-14T07:00:49.706Z,2.07
2017-10-14T07:03:16.365Z,1.90
2017-10-14T07:05:43.001Z,1.80
2017-10-14T07:08:09.658Z,1.90
2017-10-14T07:10:36.298Z,2.30
2017-10-14T07:13:02.945Z,2.03
2017-10-14T07:15:29.604Z,1.80
2017-10-14T07:17:56.255Z,1.90
2017-10-14T07:20:22.905Z,2.00
2017-10-14T07:22:49.554Z,2.23
2017-10-14T07:25:16.205Z,1.70
2017-10-14T07:27:42.839Z,2.10
2017-10-14T07:30:09.540Z,2.50
2017-10-14T07:32:36.168Z,2.20
2017-10-14T07:35:02.844Z,1.93
2017-10-14T07:37:29.493Z,1.90
2017-10-14T07:39:56.146Z,2.70
2017-10-14T07:42:22.797Z,2.40
2017-10-14T07:44:49.451Z,2.60
2017-10-14T07:47:16.202Z,2.30
2017-10-14T07:49:42.832Z,2.50
2017-10-14T07:52:09.476Z,2.37
2017-10-14T07:54:36.118Z,2.23
2017-10-14T07:57:02.767Z,2.90
2017-10-14T07:59:29.401Z,2.20
2017-10-14T08:01:56.104Z,2.53
2017-10-14T08:04:22.756Z,2.47
2017-10-14T08:06:49.389Z,2.70
2017-10-14T08:09:16.038Z,2.63
2017-10-14T08:11:42.684Z,2.63
2017-10-14T08:14:09.357Z,2.07
2017-10-14T08:16:36.000Z,2.10
2017-10-14T08:19:02.649Z,2.70
2017-10-14T08:21:29.285Z,2.70
2017-10-14T08:23:55.940Z,2.77
2017-10-14T08:26:22.578Z,2.70
2017-10-14T08:28:49.217Z,2.50
2017-10-14T08:31:15.874Z,2.10
2017-10-14T08:33:42.516Z,2.30
2017-10-14T08:36:09.168Z,2.60
2017-10-14T08:38:35.865Z,2.13
2017-10-14T08:41:02.621Z,2.10
2017-10-14T08:43:29.252Z,2.27
2017-10-14T08:45:55.927Z,2.40
2017-10-14T08:48:22.579Z,2.40
2017-10-14T08:50:49.221Z,2.50
2017-10-14T08:53:15.881Z,2.17
2017-10-14T08:55:42.530Z,2.00
2017-10-14T08:58:09.273Z,2.30
2017-10-14T09:00:35.904Z,2.30
2017-10-14T09:03:02.553Z,2.50
2017-10-14T09:05:29.188Z,1.70
2017-10-14T09:07:55.841Z,2.40
2017-10-14T09:10:22.472Z,2.53
2017-10-14T09:12:49.184Z,4.17
2017-10-14T09:15:15.816Z,2.40
2017-10-14T09:17:42.454Z,2.53
2017-10-14T09:20:09.138Z,2.30
2017-10-14T09:22:35.768Z,2.30
2017-10-14T09:25:02.416Z,2.30
2017-10-14T09:27:29.057Z,2.70
2017-10-14T09:29:55.708Z,1.93
2017-10-14T09:32:22.344Z,2.27
2017-10-14T09:34:48.997Z,2.03
2017-10-14T09:37:15.627Z,2.37
2017-10-14T09:39:42.349Z,2.20
2017-10-14T09:42:09.088Z,2.30
2017-10-14T09:44:35.845Z,2.10
2017-10-14T09:47:02.485Z,4.33
2017-10-14T09:49:29.229Z,2.27
2017-10-14T09:51:55.866Z,2.50
2017-10-14T09:54:22.553Z,2.83
2017-10-14T09:56:49.205Z,2.97
2017-10-14T09:59:15.837Z,2.00
2017-10-14T10:01:42.501Z,2.57
2017-10-14T10:04:09.129Z,2.40
2017-10-14T10:06:35.785Z,2.13
2017-10-14T10:09:02.457Z,2.43
2017-10-14T10:11:30.317Z,2.07
2017-10-14T10:13:58.019Z,2.30
2017-10-14T10:16:25.675Z,2.10
2017-10-14T10:18:53.265Z,2.00
2017-10-14T10:21:21.125Z,2.13
2017-10-14T10:23:48.313Z,2.40
2017-10-14T10:26:15.107Z,1.97
2017-10-14T10:28:41.767Z,2.07
2017-10-14T10:31:08.401Z,2.57
2017-10-14T10:33:35.200Z,2.23
2017-10-14T10:36:01.832Z,2.10
2017-10-14T10:38:28.484Z,2.00
2017-10-14T10:40:56.058Z,1.83
2017-10-14T10:43:22.831Z,2.40
2017-10-14T10:45:50.561Z,2.43
2017-10-14T10:48:18.296Z,2.53
2017-10-14T10:50:45.909Z,2.60
2017-10-14T10:53:12.608Z,3.27
2017-10-14T10:55:39.258Z,2.20
2017-10-14T10:58:05.893Z,2.10
2017-10-14T11:00:32.546Z,2.50
2017-10-14T11:02:59.180Z,3.57
2017-10-14T11:05:25.832Z,3.40
2017-10-14T11:07:52.511Z,3.50
2017-10-14T11:10:19.161Z,2.60
2017-10-14T11:12:45.792Z,2.80
2017-10-14T11:15:12.481Z,3.37
2017-10-14T11:17:39.129Z,4.07
2017-10-14T11:20:05.756Z,3.27
2017-10-14T11:22:32.407Z,3.40
2017-10-14T11:24:59.037Z,3.67
2017-10-14T11:27:25.717Z,3.30
2017-10-14T11:29:52.345Z,3.00
2017-10-14T11:32:19.000Z,3.27
2017-10-14T11:34:45.632Z,3.17
2017-10-14T11:37:12.280Z,3.30
2017-10-14T11:39:38.981Z,3.37
2017-10-14T11:42:05.644Z,3.10
2017-10-14T11:44:32.281Z,3.20
2017-10-14T11:46:58.960Z,3.07
2017-10-14T11:49:25.608Z,3.23
2017-10-14T11:51:52.329Z,3.07
2017-10-14T11:54:18.980Z,3.80
2017-10-14T11:56:45.645Z,3.23
2017-10-14T11:59:12.300Z,3.57
2017-10-14T12:01:39.041Z,3.10
2017-10-14T12:04:05.789Z,3.20
2017-10-14T12:06:32.417Z,3.23
2017-10-14T12:08:59.073Z,3.80
2017-10-14T12:11:25.704Z,3.40
2017-10-14T12:13:52.361Z,3.30
2017-10-14T12:16:19.040Z,3.23
2017-10-14T12:18:45.692Z,5.30
2017-10-14T12:21:12.343Z,3.77
2017-10-14T12:23:38.993Z,3.70
2017-10-14T12:26:05.646Z,3.37
2017-10-14T12:28:32.281Z,3.47
2017-10-14T12:30:58.928Z,3.90
2017-10-14T12:33:25.565Z,3.27
2017-10-14T12:35:52.344Z,5.20
2017-10-14T12:38:19.001Z,4.70
2017-10-14T12:40:45.640Z,5.60
2017-10-14T12:43:12.289Z,4.07
2017-10-14T12:45:38.953Z,4.07
2017-10-14T12:48:05.604Z,3.40
2017-10-14T12:50:32.228Z,4.10
2017-10-14T12:52:58.884Z,4.23
2017-10-14T12:55:25.513Z,4.63
2017-10-14T12:57:52.160Z,3.97
2017-10-14T13:00:18.788Z,3.87
2017-10-14T13:02:45.610Z,3.77
2017-10-14T13:05:12.244Z,3.73
2017-10-14T13:07:38.885Z,3.50
2017-10-14T13:10:05.546Z,3.40
2017-10-14T13:12:32.180Z,3.60
2017-10-14T13:14:58.861Z,3.73
2017-10-14T13:17:25.503Z,4.00
2017-10-14T13:19:52.213Z,4.03
2017-10-14T13:22:18.925Z,3.50
2017-10-14T13:24:45.581Z,3.30
2017-10-14T13:27:12.209Z,3.97
2017-10-14T13:29:38.840Z,3.73
2017-10-14T13:32:05.489Z,3.03
2017-10-14T13:34:32.169Z,3.30
2017-10-14T13:36:58.820Z,3.10
2017-10-14T13:39:25.468Z,3.20
2017-10-14T13:41:52.227Z,3.17
2017-10-14T13:44:18.856Z,3.60
2017-10-14T13:46:45.507Z,3.17
2017-10-14T13:49:12.145Z,2.83
2017-10-14T13:51:38.804Z,3.83
2017-10-14T13:54:05.437Z,2.90
2017-10-14T13:56:32.070Z,2.87
2017-10-14T13:58:58.717Z,3.13
2017-10-14T14:01:25.349Z,3.27
2017-10-14T14:03:52.010Z,2.93
2017-10-14T14:06:18.660Z,3.30
2017-10-14T14:08:45.310Z,3.50
2017-10-14T14:11:12.024Z,7.53
2017-10-14T14:13:38.772Z,6.67
2017-10-14T14:16:05.430Z,3.37
2017-10-14T14:18:32.180Z,2.97
2017-10-14T14:20:58.832Z,3.50
2017-10-14T14:23:25.470Z,4.00
2017-10-14T14:25:52.155Z,3.23
2017-10-14T14:28:18.793Z,2.77
2017-10-14T14:30:45.445Z,3.40
2017-10-14T14:33:12.076Z,3.30
2017-10-14T14:35:38.732Z,3.50
2017-10-14T14:38:05.365Z,3.73
2017-10-14T14:40:32.017Z,3.00
2017-10-14T14:42:58.657Z,3.20
2017-10-14T14:45:25.328Z,2.80
2017-10-14T14:47:51.985Z,3.40
2017-10-14T14:50:18.641Z,3.00
2017-10-14T14:52:45.492Z,3.10
2017-10-14T14:55:12.150Z,2.90
2017-10-14T14:57:38.897Z,3.70
2017-10-14T15:00:05.525Z,2.80
2017-10-14T15:02:32.173Z,2.90
2017-10-14T15:04:58.805Z,2.90
2017-10-14T15:07:25.460Z,3.63
2017-10-14T15:09:52.098Z,2.93
2017-10-14T15:12:18.728Z,2.83
2017-10-14T15:14:45.372Z,2.60
2017-10-14T15:17:12.001Z,3.50
2017-10-14T15:19:38.658Z,2.90
2017-10-14T15:22:05.287Z,2.90
2017-10-14T15:24:31.957Z,2.90
2017-10-14T15:26:58.616Z,3.20
2017-10-14T15:29:25.261Z,2.97
2017-10-14T15:31:51.896Z,2.97
2017-10-14T15:34:18.547Z,2.87
2017-10-14T15:36:45.209Z,3.50
2017-10-14T15:39:11.837Z,2.73
2017-10-14T15:41:38.484Z,3.00
2017-10-14T15:44:05.113Z,3.07
2017-10-14T15:46:31.764Z,3.13
2017-10-14T15:48:58.391Z,3.60
2017-10-14T15:51:25.040Z,3.23
2017-10-14T15:53:51.668Z,2.93
2017-10-14T15:56:18.316Z,5.70
2017-10-14T15:58:44.961Z,5.80
2017-10-14T16:01:11.617Z,4.13
2017-10-14T16:03:38.297Z,4.20
2017-10-14T16:06:05.014Z,4.80
2017-10-14T16:08:31.688Z,4.37
2017-10-14T16:10:58.323Z,3.40
2017-10-14T16:13:25.068Z,6.90
2017-10-14T16:15:51.708Z,6.40
2017-10-14T16:18:18.365Z,5.73
2017-10-14T16:20:45.120Z,6.70
2017-10-14T16:23:11.761Z,6.53
2017-10-14T16:25:38.417Z,6.13
2017-10-14T16:28:05.053Z,6.10
2017-10-14T16:30:31.731Z,7.80
2017-10-14T16:32:58.364Z,6.53
2017-10-14T16:35:25.012Z,6.20
2017-10-14T16:37:51.676Z,6.77
2017-10-14T16:40:18.308Z,7.97
2017-10-14T16:42:44.980Z,7.90
2017-10-14T16:45:11.612Z,7.83
2017-10-14T16:47:38.266Z,9.40
2017-10-14T16:50:04.929Z,8.30
2017-10-14T16:52:31.591Z,8.53
2017-10-14T16:54:58.228Z,8.70
2017-10-14T16:57:24.883Z,9.17
2017-10-14T16:59:51.517Z,7.90
2017-10-14T17:02:18.168Z,7.73
2017-10-14T17:04:44.801Z,9.60
2017-10-14T17:07:11.468Z,8.40
2017-10-14T17:09:38.100Z,8.07
2017-10-14T17:12:04.736Z,8.93
2017-10-14T17:14:31.437Z,9.27
2017-10-14T17:16:58.078Z,7.83
2017-10-14T17:19:24.740Z,7.90
2017-10-14T17:21:51.380Z,7.60
2017-10-14T17:24:18.033Z,6.73
2017-10-14T17:26:44.664Z,7.73
2017-10-14T17:29:11.345Z,8.40
2017-10-14T17:31:37.985Z,9.20
2017-10-14T17:34:04.648Z,8.43
2017-10-14T17:36:31.285Z,9.10
2017-10-14T17:38:57.921Z,7.97
2017-10-14T17:41:24.600Z,7.27
2017-10-14T17:43:51.240Z,7.90
2017-10-14T17:46:17.889Z,7.17
2017-10-14T17:48:44.544Z,8.00
2017-10-14T17:51:11.296Z,7.47
2017-10-14T17:53:37.932Z,7.40
2017-10-14T17:56:04.589Z,8.27
2017-10-14T17:58:31.221Z,7.50
2017-10-14T18:00:57.873Z,7.80
2017-10-14T18:03:24.515Z,8.00
2017-10-14T18:05:51.195Z,7.50
2017-10-14T18:08:17.832Z,7.80
2017-10-14T18:10:44.513Z,7.10
2017-10-14T18:13:11.169Z,7.70
2017-10-14T18:15:37.912Z,6.93
2017-10-14T18:18:04.665Z,7.50
2017-10-14T18:20:31.301Z,7.23
2017-10-14T18:22:57.957Z,8.07
2017-10-14T18:25:24.593Z,7.27
2017-10-14T18:27:51.249Z,7.60
2017-10-14T18:30:17.989Z,8.13
2017-10-14T18:32:44.660Z,6.90
2017-10-14T18:35:11.293Z,7.90
2017-10-14T18:37:37.934Z,6.77
2017-10-14T18:40:04.616Z,7.37
2017-10-14T18:42:31.247Z,7.60
2017-10-14T18:44:57.905Z,7.80
2017-10-14T18:47:24.573Z,7.87
2017-10-14T18:49:51.225Z,6.47
2017-10-14T18:52:17.857Z,6.63
2017-10-14T18:54:44.517Z,6.43
2017-10-14T18:57:11.154Z,6.60
2017-10-14T18:59:37.825Z,7.00
2017-10-14T19:02:04.460Z,6.20
2017-10-14T19:04:31.121Z,6.57
2017-10-14T19:06:57.761Z,6.70
2017-10-14T19:09:24.402Z,6.90
2017-10-14T19:11:51.065Z,6.53
2017-10-14T19:14:17.700Z,6.60
2017-10-14T19:16:44.352Z,6.73
2017-10-14T19:19:10.984Z,6.43
2017-10-14T19:21:37.636Z,6.63
2017-10-14T19:24:04.269Z,7.20
2017-10-14T19:26:30.996Z,7.57
2017-10-14T19:28:57.732Z,7.80
2017-10-14T19:31:24.388Z,6.80
2017-10-14T19:33:51.021Z,7.10
2017-10-14T19:36:17.660Z,6.90
2017-10-14T19:38:44.333Z,7.40
2017-10-14T19:41:11.904Z,7.13
2017-10-14T19:43:38.548Z,6.00
2017-10-14T19:46:05.209Z,7.60
2017-10-14T19:48:31.960Z,6.67
2017-10-14T19:50:58.621Z,7.10
2017-10-14T19:53:25.273Z,7.20
2017-10-14T19:55:51.906Z,6.90
2017-10-14T19:58:18.573Z,6.70
2017-10-14T20:00:45.217Z,7.00
2017-10-14T20:03:11.849Z,7.17
2017-10-14T20:05:38.500Z,5.90
2017-10-14T20:08:05.141Z,6.00
2017-10-14T20:10:31.821Z,7.10
2017-10-14T20:12:58.477Z,6.30
2017-10-14T20:15:25.136Z,7.07
2017-10-14T20:17:51.769Z,6.40
2017-10-14T20:20:18.416Z,6.30
2017-10-14T20:22:45.053Z,7.50
2017-10-14T20:25:11.708Z,5.90
2017-10-14T20:27:38.376Z,6.27
2017-10-14T20:30:05.039Z,6.57
2017-10-14T20:32:31.776Z,6.80
2017-10-14T20:34:58.418Z,5.90
2017-10-14T20:37:25.099Z,6.17
2017-10-14T20:39:51.837Z,6.60
2017-10-14T20:42:18.494Z,6.47
2017-10-14T20:44:45.137Z,6.60
2017-10-14T20:47:11.793Z,5.50
2017-10-14T20:49:38.424Z,6.27
2017-10-14T20:52:05.080Z,6.53
2017-10-14T20:54:31.712Z,6.43
2017-10-14T20:56:58.348Z,6.60
2017-10-14T20:59:25.040Z,5.83
2017-10-14T21:01:51.689Z,6.40
2017-10-14T21:04:18.345Z,6.60
2017-10-14T21:06:44.983Z,6.40
2017-10-14T21:09:11.749Z,6.17
2017-10-14T21:11:38.384Z,6.93
2017-10-14T21:14:05.037Z,6.00
2017-10-14T21:16:31.698Z,5.10
2017-10-14T21:18:58.345Z,6.23
2017-10-14T21:21:24.984Z,6.07
2017-10-14T21:23:51.764Z,6.10
2017-10-14T21:26:18.499Z,5.40
2017-10-14T21:28:45.136Z,5.80
2017-10-14T21:31:11.794Z,5.83
2017-10-14T21:33:38.458Z,5.63
2017-10-14T21:36:05.104Z,5.90
2017-10-14T21:38:31.745Z,5.87
2017-10-14T21:40:58.396Z,5.87
2017-10-14T21:43:25.057Z,5.82
2017-10-14T21:45:51.713Z,5.20
2017-10-14T21:48:18.344Z,6.40
2017-10-14T21:50:44.996Z,5.10
2017-10-14T21:53:11.633Z,4.90
2017-10-14T21:55:38.313Z,5.57
2017-10-14T21:58:04.961Z,5.93
2017-10-14T22:00:31.613Z,4.80
2017-10-14T22:02:58.364Z,5.30
2017-10-14T22:05:24.992Z,5.83
2017-10-14T22:07:51.669Z,6.03
2017-10-14T22:10:18.304Z,5.53
2017-10-14T22:12:44.952Z,6.80
2017-10-14T22:15:11.601Z,6.30
2017-10-14T22:17:38.252Z,5.77
2017-10-14T22:20:04.879Z,5.60
2017-10-14T22:22:31.573Z,4.90
2017-10-14T22:24:58.226Z,6.47
2017-10-14T22:27:24.892Z,5.30
2017-10-14T22:29:51.620Z,5.50
2017-10-14T22:32:18.257Z,5.83
2017-10-14T22:34:44.917Z,5.03
2017-10-14T22:37:11.560Z,6.07
2017-10-14T22:39:38.209Z,6.03
2017-10-14T22:42:04.881Z,5.20
2017-10-14T22:44:31.533Z,4.90
2017-10-14T22:46:58.165Z,5.07
2017-10-14T22:49:24.812Z,6.07
2017-10-14T22:51:51.448Z,5.93
2017-10-14T22:54:18.100Z,5.53
2017-10-14T22:56:44.798Z,5.30
2017-10-14T22:59:11.537Z,5.57
2017-10-14T23:01:38.184Z,5.40
2017-10-14T23:04:04.817Z,4.97
2017-10-14T23:06:31.459Z,6.27
2017-10-14T23:08:58.089Z,5.13
2017-10-14T23:11:24.796Z,5.63
2017-10-14T23:13:51.433Z,5.50
2017-10-14T23:16:18.085Z,6.00
2017-10-14T23:18:44.720Z,6.00
2017-10-14T23:21:11.373Z,4.43
2017-10-14T23:23:38.001Z,5.90
2017-10-14T23:26:04.697Z,5.30
2017-10-14T23:28:31.328Z,5.83
2017-10-14T23:30:57.960Z,5.97
2017-10-14T23:33:24.610Z,5.50
2017-10-14T23:35:51.241Z,5.87
2017-10-14T23:38:17.946Z,5.33
2017-10-14T23:40:44.581Z,5.17
2017-10-14T23:43:11.233Z,5.57
2017-10-14T23:45:37.869Z,5.43
2017-10-14T23:48:04.525Z,5.17
2017-10-14T23:50:31.161Z,4.63
2017-10-14T23:52:57.815Z,4.77
2017-10-14T23:55:24.453Z,5.23
2017-10-14T23:57:51.081Z,4.50
